Time;durP1;ratioP1;P1;durP2;ratioP2;P2;SDS_P1;SDS_P2;PMS_P1;PMS_P2;Temp;Humidity;BMP_temperature;BMP_pressure;BME280_temperature;BME280_humidity;BME280_pressure;Samples;Min_cycle;Max_cycle;Signal;HPM_P1;HPM_P2
2022/01/22 00:00:48;;;;;;;10.40;6.87;;;;;;;;;;5096507;28;20853;-69
2022/01/22 00:03:15;;;;;;;12.80;6.67;;;;;;;;;;5092998;28;20539;-69
2022/01/22 00:05:43;;;;;;;12.00;7.17;;;;;;;;;;5092301;28;20495;-69
2022/01/22 00:08:10;;;;;;;11.90;7.40;;;;;;;;;;5092820;28;20881;-69
2022/01/22 00:10:41;;;;;;;15.57;7.20;;;;;;;;;;5092695;28;20498;-68
2022/01/22 00:15:50;;;;;;;9.30;6.20;;;;;;;;;;5090621;28;20481;-69
2022/01/22 00:18:17;;;;;;;12.13;7.40;;;;;;;;;;5092113;28;20452;-69
2022/01/22 00:20:46;;;;;;;13.57;6.80;;;;;;;;;;5091488;28;20883;-68
2022/01/22 00:23:15;;;;;;;12.20;7.23;;;;;;;;;;5092216;28;20863;-68
2022/01/22 00:25:44;;;;;;;12.77;6.53;;;;;;;;;;5092181;28;20851;-68
2022/01/22 00:28:11;;;;;;;8.30;6.07;;;;;;;;;;5091924;28;20989;-68
2022/01/22 00:30:38;;;;;;;10.20;7.00;;;;;;;;;;5092253;28;20864;-69
2022/01/22 00:33:06;;;;;;;10.63;6.10;;;;;;;;;;5091212;28;20536;-68
2022/01/22 00:35:33;;;;;;;8.63;5.33;;;;;;;;;;5090826;28;20592;-68
2022/01/22 00:38:00;;;;;;;8.60;5.63;;;;;;;;;;5091222;28;20786;-68
2022/01/22 00:40:28;;;;;;;7.10;5.53;;;;;;;;;;5092256;28;20456;-68
2022/01/22 00:42:56;;;;;;;13.30;7.03;;;;;;;;;;5091036;28;20452;-69
2022/01/22 00:45:23;;;;;;;6.00;4.33;;;;;;;;;;5092122;28;20832;-69
2022/01/22 00:47:51;;;;;;;8.03;6.00;;;;;;;;;;5091580;28;20552;-69
2022/01/22 00:50:19;;;;;;;11.10;5.87;;;;;;;;;;5091649;28;20951;-68
2022/01/22 00:52:47;;;;;;;5.87;4.90;;;;;;;;;;5090471;28;20563;-68
2022/01/22 00:55:14;;;;;;;9.00;5.80;;;;;;;;;;5091056;28;20527;-68
2022/01/22 00:57:41;;;;;;;16.90;5.83;;;;;;;;;;5091425;28;20532;-68
2022/01/22 01:00:11;;;;;;;10.37;5.27;;;;;;;;;;5091793;28;20491;-68
2022/01/22 01:06:05;;;;;;;7.87;4.60;;;;;;;;;;4968621;28;20457;-68
2022/01/22 01:08:34;;;;;;;6.30;4.70;;;;;;;;;;4970087;28;20533;-69
2022/01/22 01:11:01;;;;;;;7.57;4.83;;;;;;;;;;5018089;28;20474;-68
2022/01/22 01:13:32;;;;;;;5.47;4.37;;;;;;;;;;5041929;28;20480;-68
2022/01/22 01:16:04;;;;;;;6.33;4.50;;;;;;;;;;5090645;28;20790;-68
2022/01/22 01:32:25;;;;;;;7.43;3.80;;;;;;;;;;5079406;28;20828;-69
2022/01/22 01:34:52;;;;;;;5.40;3.80;;;;;;;;;;5089558;28;20460;-68
2022/01/22 01:37:20;;;;;;;6.47;4.07;;;;;;;;;;5090827;28;20503;-68
2022/01/22 01:39:51;;;;;;;3.80;3.40;;;;;;;;;;5090302;28;20818;-68
2022/01/22 01:42:24;;;;;;;5.97;4.83;;;;;;;;;;5091114;28;20444;-69
2022/01/22 01:44:51;;;;;;;8.40;4.60;;;;;;;;;;5089700;28;20449;-68
2022/01/22 01:47:20;;;;;;;6.40;4.07;;;;;;;;;;5090832;28;20494;-68
2022/01/22 01:49:47;;;;;;;9.63;3.83;;;;;;;;;;5076528;28;20446;-69
2022/01/22 01:52:20;;;;;;;6.70;4.17;;;;;;;;;;5090582;28;20579;-68
2022/01/22 01:55:01;;;;;;;9.50;5.20;;;;;;;;;;5089791;28;20471;-69
2022/01/22 02:00:11;;;;;;;9.30;5.20;;;;;;;;;;5086033;28;20792;-68
2022/01/22 02:02:41;;;;;;;5.90;4.33;;;;;;;;;;5090368;28;20478;-68
2022/01/22 02:05:10;;;;;;;9.10;5.17;;;;;;;;;;5089790;28;20518;-69
2022/01/22 02:07:39;;;;;;;6.00;4.23;;;;;;;;;;5091028;28;20801;-68
2022/01/22 02:10:08;;;;;;;6.80;4.70;;;;;;;;;;5090838;28;20457;-68
2022/01/22 02:13:01;;;;;;;11.03;5.20;;;;;;;;;;5091153;28;20445;-68
2022/01/22 02:23:52;;;;;;;6.97;4.37;;;;;;;;;;5089513;28;20415;-68
2022/01/22 02:26:19;;;;;;;6.53;4.47;;;;;;;;;;5090698;28;20456;-69
2022/01/22 02:28:49;;;;;;;4.10;3.70;;;;;;;;;;5089466;28;20444;-68
2022/01/22 02:31:25;;;;;;;8.27;5.83;;;;;;;;;;5090294;28;20436;-68
2022/01/22 02:33:58;;;;;;;13.03;5.60;;;;;;;;;;5089941;28;20475;-68
2022/01/22 02:36:32;;;;;;;8.97;5.93;;;;;;;;;;5091465;28;20809;-69
2022/01/22 02:39:06;;;;;;;8.90;5.47;;;;;;;;;;5096713;28;20448;-69
2022/01/22 02:41:35;;;;;;;7.83;5.10;;;;;;;;;;5099474;28;20475;-69
2022/01/22 02:44:02;;;;;;;8.40;5.40;;;;;;;;;;5091844;28;20494;-68
2022/01/22 02:46:31;;;;;;;7.83;4.00;;;;;;;;;;5090883;28;20459;-69
2022/01/22 02:48:58;;;;;;;5.70;4.80;;;;;;;;;;5089858;28;20444;-69
2022/01/22 02:51:28;;;;;;;5.77;5.00;;;;;;;;;;5090037;28;20511;-68
2022/01/22 02:53:56;;;;;;;7.53;5.70;;;;;;;;;;5089604;28;20448;-68
2022/01/22 02:56:23;;;;;;;6.77;4.93;;;;;;;;;;5090667;28;20534;-69
2022/01/22 02:58:51;;;;;;;6.40;5.30;;;;;;;;;;5090090;28;20452;-69
2022/01/22 03:01:18;;;;;;;6.00;4.60;;;;;;;;;;5093865;28;20981;-69
2022/01/22 03:03:46;;;;;;;6.17;4.77;;;;;;;;;;5092827;28;20440;-69
2022/01/22 03:06:13;;;;;;;9.60;6.40;;;;;;;;;;5093381;28;20495;-69
2022/01/22 03:08:43;;;;;;;11.10;5.73;;;;;;;;;;5093485;28;20531;-68
2022/01/22 03:11:19;;;;;;;7.17;5.17;;;;;;;;;;5094202;28;20501;-68
2022/01/22 03:16:49;;;;;;;8.20;5.27;;;;;;;;;;5092748;28;20472;-68
2022/01/22 03:19:31;;;;;;;7.90;5.60;;;;;;;;;;5082068;28;20864;-68
2022/01/22 03:22:12;;;;;;;7.93;5.03;;;;;;;;;;5092580;28;20526;-68
2022/01/22 03:27:28;;;;;;;10.70;5.10;;;;;;;;;;5081987;28;20419;-68
2022/01/22 03:29:56;;;;;;;5.77;4.30;;;;;;;;;;5092896;28;20452;-68
2022/01/22 03:32:25;;;;;;;8.23;5.77;;;;;;;;;;5093349;28;20456;-68
2022/01/22 03:34:57;;;;;;;7.67;4.77;;;;;;;;;;5092060;28;20484;-68
2022/01/22 03:37:25;;;;;;;6.63;4.67;;;;;;;;;;5093650;28;20498;-68
2022/01/22 03:39:54;;;;;;;8.53;5.30;;;;;;;;;;5092779;28;20524;-68
2022/01/22 03:42:21;;;;;;;6.57;5.37;;;;;;;;;;5093498;28;20451;-68
2022/01/22 03:44:48;;;;;;;7.10;5.37;;;;;;;;;;5092276;28;20472;-68
2022/01/22 03:47:15;;;;;;;8.77;6.20;;;;;;;;;;5092658;28;20535;-68
2022/01/22 03:49:42;;;;;;;8.10;6.27;;;;;;;;;;5092235;28;20451;-68
2022/01/22 03:52:10;;;;;;;8.17;5.27;;;;;;;;;;5092663;28;20480;-69
2022/01/22 03:54:37;;;;;;;8.97;6.00;;;;;;;;;;5092343;28;20472;-68
2022/01/22 03:57:07;;;;;;;8.10;5.90;;;;;;;;;;5092202;28;20711;-68
2022/01/22 03:59:34;;;;;;;8.23;5.37;;;;;;;;;;5093148;28;20475;-68
2022/01/22 04:02:37;;;;;;;12.53;6.53;;;;;;;;;;5091569;28;20559;-68
2022/01/22 04:05:03;;;;;;;8.10;5.10;;;;;;;;;;5091327;28;20839;-68
2022/01/22 04:08:06;;;;;;;7.10;5.17;;;;;;;;;;5092797;28;20448;-68
2022/01/22 04:10:34;;;;;;;6.77;5.10;;;;;;;;;;5092399;28;20453;-68
2022/01/22 04:13:06;;;;;;;9.50;4.83;;;;;;;;;;5091276;28;20456;-68
2022/01/22 04:15:37;;;;;;;7.00;5.20;;;;;;;;;;5092813;28;20523;-68
2022/01/22 04:26:29;;;;;;;8.50;6.50;;;;;;;;;;5092413;28;20477;-68
2022/01/22 04:28:57;;;;;;;9.37;6.73;;;;;;;;;;5091402;28;20448;-68
2022/01/22 04:31:25;;;;;;;8.10;5.70;;;;;;;;;;5091886;28;20588;-68
2022/01/22 04:33:52;;;;;;;7.57;5.53;;;;;;;;;;5090671;28;20440;-67
2022/01/22 04:36:19;;;;;;;8.43;5.90;;;;;;;;;;5091343;28;20603;-68
2022/01/22 04:38:46;;;;;;;8.80;7.03;;;;;;;;;;5091361;28;20527;-68
2022/01/22 04:41:14;;;;;;;9.60;6.33;;;;;;;;;;5091651;28;20484;-68
2022/01/22 04:43:43;;;;;;;8.77;5.90;;;;;;;;;;5091693;28;20799;-68
2022/01/22 04:46:19;;;;;;;10.00;7.27;;;;;;;;;;5091399;28;20462;-68
2022/01/22 04:48:54;;;;;;;9.23;6.80;;;;;;;;;;5091311;28;20852;-68
2022/01/22 04:56:51;;;;;;;7.20;6.30;;;;;;;;;;5090922;28;20869;-68
2022/01/22 04:59:19;;;;;;;9.70;6.00;;;;;;;;;;5091968;28;20867;-68
2022/01/22 05:01:48;;;;;;;8.63;5.93;;;;;;;;;;5091232;28;20452;-68
2022/01/22 05:04:15;;;;;;;11.90;7.20;;;;;;;;;;5091556;28;20471;-68
2022/01/22 05:06:44;;;;;;;7.33;4.97;;;;;;;;;;5091692;28;20519;-68
2022/01/22 05:09:11;;;;;;;7.30;5.83;;;;;;;;;;5091496;28;20448;-68
2022/01/22 05:11:38;;;;;;;8.60;5.97;;;;;;;;;;5091659;28;20448;-68
2022/01/22 05:14:05;;;;;;;9.00;6.53;;;;;;;;;;5090431;28;20532;-68
2022/01/22 05:16:32;;;;;;;7.00;5.90;;;;;;;;;;5091642;28;20488;-68
2022/01/22 05:19:07;;;;;;;6.93;5.27;;;;;;;;;;5090461;28;20501;-68
2022/01/22 05:21:36;;;;;;;6.37;5.33;;;;;;;;;;5093878;28;20956;-68
2022/01/22 05:24:08;;;;;;;8.10;5.50;;;;;;;;;;5097016;28;20944;-68
2022/01/22 05:27:14;;;;;;;11.43;5.43;;;;;;;;;;5094970;28;20526;-68
2022/01/22 05:30:01;;;;;;;12.33;6.03;;;;;;;;;;5091587;28;20452;-68
2022/01/22 05:32:37;;;;;;;7.33;5.17;;;;;;;;;;5091024;28;20448;-68
2022/01/22 05:37:51;;;;;;;10.43;6.50;;;;;;;;;;5089750;28;21274;-68
2022/01/22 05:40:19;;;;;;;8.47;5.80;;;;;;;;;;5084735;28;20862;-68
2022/01/22 05:42:46;;;;;;;7.83;6.47;;;;;;;;;;5085898;28;20499;-68
2022/01/22 05:45:13;;;;;;;7.80;5.73;;;;;;;;;;5090965;28;20946;-68
2022/01/22 05:47:41;;;;;;;5.93;5.30;;;;;;;;;;5090811;28;20571;-68
2022/01/22 05:50:23;;;;;;;7.00;6.30;;;;;;;;;;5089949;28;20444;-68
2022/01/22 05:52:56;;;;;;;13.27;6.10;;;;;;;;;;5085824;28;20479;-68
2022/01/22 06:01:10;;;;;;;10.03;5.90;;;;;;;;;;5089416;28;20894;-70
2022/01/22 06:03:37;;;;;;;7.40;5.10;;;;;;;;;;5092119;28;20440;-68
2022/01/22 06:06:05;;;;;;;9.30;6.27;;;;;;;;;;5107964;28;20774;-68
2022/01/22 06:08:34;;;;;;;8.47;6.17;;;;;;;;;;5100316;28;20437;-67
2022/01/22 06:11:07;;;;;;;9.83;6.67;;;;;;;;;;5095217;28;20455;-68
2022/01/22 06:13:43;;;;;;;9.70;6.70;;;;;;;;;;5105865;28;20497;-68
2022/01/22 06:16:11;;;;;;;11.13;6.70;;;;;;;;;;5097570;28;20685;-68
2022/01/22 06:18:38;;;;;;;6.83;5.60;;;;;;;;;;5108429;28;20535;-67
2022/01/22 06:21:05;;;;;;;7.13;5.43;;;;;;;;;;5091060;28;20461;-68
2022/01/22 06:23:32;;;;;;;8.63;5.70;;;;;;;;;;5105538;28;20455;-68
2022/01/22 06:26:01;;;;;;;10.03;6.27;;;;;;;;;;5107391;28;20534;-68
2022/01/22 06:28:28;;;;;;;12.83;6.83;;;;;;;;;;5107898;28;20463;-68
2022/01/22 06:30:57;;;;;;;8.73;6.00;;;;;;;;;;5106988;28;20454;-68
2022/01/22 06:33:24;;;;;;;11.90;6.80;;;;;;;;;;5094810;28;20526;-68
2022/01/22 06:35:51;;;;;;;11.43;6.50;;;;;;;;;;5094694;28;20527;-68
2022/01/22 06:38:18;;;;;;;10.47;6.10;;;;;;;;;;5099156;28;20563;-68
2022/01/22 06:43:31;;;;;;;12.63;6.67;;;;;;;;;;5098821;28;20415;-68
2022/01/22 06:45:59;;;;;;;9.57;5.60;;;;;;;;;;5107069;28;20535;-68
2022/01/22 06:48:26;;;;;;;8.10;5.67;;;;;;;;;;5107930;28;20527;-68
2022/01/22 06:50:54;;;;;;;11.17;6.23;;;;;;;;;;5091831;28;20448;-68
2022/01/22 06:53:21;;;;;;;6.60;5.77;;;;;;;;;;5097043;28;20455;-68
2022/01/22 06:55:55;;;;;;;9.50;6.40;;;;;;;;;;5106732;28;20810;-69
2022/01/22 06:58:22;;;;;;;8.77;6.03;;;;;;;;;;5107333;28;20520;-68
2022/01/22 07:00:49;;;;;;;7.23;5.83;;;;;;;;;;5106539;28;20526;-68
2022/01/22 07:03:18;;;;;;;8.83;6.30;;;;;;;;;;5106865;28;20479;-67
2022/01/22 07:05:45;;;;;;;8.73;6.33;;;;;;;;;;5106595;28;20451;-68
2022/01/22 07:08:12;;;;;;;9.77;6.67;;;;;;;;;;5096619;28;20445;-67
2022/01/22 07:10:39;;;;;;;12.20;7.03;;;;;;;;;;5081610;28;20436;-68
2022/01/22 07:13:06;;;;;;;10.77;6.40;;;;;;;;;;5092476;28;20451;-68
2022/01/22 07:15:34;;;;;;;9.73;6.20;;;;;;;;;;5083315;28;21005;-68
2022/01/22 07:18:03;;;;;;;11.57;5.80;;;;;;;;;;5085208;28;20549;-68
2022/01/22 07:20:34;;;;;;;8.67;6.40;;;;;;;;;;5089628;28;20452;-68
2022/01/22 07:23:12;;;;;;;11.00;6.60;;;;;;;;;;5077610;28;20518;-68
2022/01/22 07:25:39;;;;;;;12.83;7.13;;;;;;;;;;5082505;28;20472;-69
2022/01/22 07:28:06;;;;;;;10.90;6.47;;;;;;;;;;5077556;28;20465;-69
2022/01/22 07:30:34;;;;;;;9.73;6.10;;;;;;;;;;5090816;28;20456;-69
2022/01/22 07:33:02;;;;;;;10.60;7.13;;;;;;;;;;5083301;28;20812;-69
2022/01/22 07:35:29;;;;;;;9.67;6.63;;;;;;;;;;5082635;28;20448;-68
2022/01/22 07:37:58;;;;;;;8.93;6.73;;;;;;;;;;5092615;28;20484;-68
2022/01/22 07:40:25;;;;;;;10.37;6.80;;;;;;;;;;5074693;28;20453;-68
2022/01/22 07:42:52;;;;;;;9.47;6.73;;;;;;;;;;5088419;28;20497;-69
2022/01/22 07:45:19;;;;;;;11.00;6.93;;;;;;;;;;5093199;28;20539;-69
2022/01/22 07:47:46;;;;;;;13.40;7.50;;;;;;;;;;5092139;28;20476;-69
2022/01/22 07:50:13;;;;;;;7.93;6.40;;;;;;;;;;5093107;28;20449;-69
2022/01/22 07:52:40;;;;;;;12.97;7.13;;;;;;;;;;5092447;28;20448;-69
2022/01/22 07:55:09;;;;;;;11.37;7.63;;;;;;;;;;5092121;28;20598;-69
2022/01/22 07:57:37;;;;;;;9.00;6.27;;;;;;;;;;5092633;28;20528;-68
2022/01/22 08:00:05;;;;;;;8.90;6.77;;;;;;;;;;5091941;28;20536;-68
2022/01/22 08:02:32;;;;;;;10.07;6.50;;;;;;;;;;5092426;28;20622;-69
2022/01/22 08:05:00;;;;;;;10.10;6.80;;;;;;;;;;5092175;28;20449;-70
2022/01/22 08:07:27;;;;;;;11.30;7.37;;;;;;;;;;5092761;28;20781;-71
2022/01/22 08:09:54;;;;;;;13.43;7.93;;;;;;;;;;5092691;28;20451;-72
2022/01/22 08:12:22;;;;;;;11.53;7.47;;;;;;;;;;5087225;28;20532;-71
2022/01/22 08:14:50;;;;;;;16.57;7.83;;;;;;;;;;5079622;28;20472;-71
2022/01/22 08:17:17;;;;;;;11.87;7.57;;;;;;;;;;5092804;28;20571;-71
2022/01/22 08:19:44;;;;;;;12.60;8.00;;;;;;;;;;5090982;28;20479;-71
2022/01/22 08:22:11;;;;;;;14.70;9.20;;;;;;;;;;5091668;28;20477;-71
2022/01/22 08:24:38;;;;;;;13.37;8.63;;;;;;;;;;5092537;28;20531;-72
2022/01/22 08:27:19;;;;;;;9.53;7.60;;;;;;;;;;5091397;28;21026;-71
2022/01/22 08:29:47;;;;;;;11.47;7.87;;;;;;;;;;5081285;28;20440;-72
2022/01/22 08:32:33;;;;;;;14.10;8.23;;;;;;;;;;5080342;28;20540;-72
2022/01/22 08:37:54;;;;;;;12.10;8.17;;;;;;;;;;5054622;28;20476;-71
2022/01/22 08:40:21;;;;;;;21.27;9.40;;;;;;;;;;5087593;28;21103;-71
2022/01/22 08:42:50;;;;;;;11.47;8.33;;;;;;;;;;5075999;28;20534;-71
2022/01/22 08:45:18;;;;;;;11.43;6.60;;;;;;;;;;5084823;28;20454;-71
2022/01/22 08:47:45;;;;;;;15.40;7.97;;;;;;;;;;5075763;28;20477;-71
2022/01/22 08:50:13;;;;;;;11.90;8.30;;;;;;;;;;5091337;28;20459;-71
2022/01/22 08:52:40;;;;;;;15.50;8.03;;;;;;;;;;5084949;28;20528;-72
2022/01/22 08:55:08;;;;;;;15.53;8.07;;;;;;;;;;5081547;28;20532;-72
2022/01/22 08:57:35;;;;;;;12.23;9.50;;;;;;;;;;5084490;28;20575;-71
2022/01/22 09:00:02;;;;;;;12.60;8.90;;;;;;;;;;5082212;28;20448;-71
2022/01/22 09:02:31;;;;;;;16.00;8.53;;;;;;;;;;5077409;28;20459;-72
2022/01/22 09:04:58;;;;;;;13.83;8.27;;;;;;;;;;5081663;28;20534;-71
2022/01/22 09:07:25;;;;;;;13.33;8.50;;;;;;;;;;5081291;28;20539;-69
2022/01/22 09:09:53;;;;;;;11.67;9.03;;;;;;;;;;5085781;28;20449;-70
2022/01/22 09:12:20;;;;;;;11.87;7.37;;;;;;;;;;5090268;28;20889;-67
2022/01/22 09:14:48;;;;;;;11.87;9.20;;;;;;;;;;5088835;28;20801;-66
2022/01/22 09:17:15;;;;;;;13.00;7.63;;;;;;;;;;5090298;28;20840;-67
2022/01/22 09:19:46;;;;;;;13.43;7.90;;;;;;;;;;5091005;28;20543;-67
2022/01/22 09:22:13;;;;;;;14.47;7.97;;;;;;;;;;5091083;28;20940;-67
2022/01/22 09:24:41;;;;;;;13.10;8.23;;;;;;;;;;5090640;28;20531;-67
2022/01/22 09:27:08;;;;;;;12.60;8.10;;;;;;;;;;5076784;28;21091;-67
2022/01/22 09:29:36;;;;;;;14.30;7.43;;;;;;;;;;5091381;28;20501;-67
2022/01/22 09:32:04;;;;;;;12.80;9.37;;;;;;;;;;5090391;28;20464;-67
2022/01/22 09:34:31;;;;;;;14.27;7.10;;;;;;;;;;5091165;28;20476;-67
2022/01/22 09:37:00;;;;;;;13.70;7.93;;;;;;;;;;5090526;28;20487;-67
2022/01/22 09:39:27;;;;;;;10.97;7.80;;;;;;;;;;5091264;28;20566;-67
2022/01/22 09:41:54;;;;;;;11.90;7.83;;;3.70;99.90;;;;;;5090466;28;20451;-67
2022/01/22 09:44:21;;;;;;;12.03;7.67;;;4.80;1.00;;;;;;5090873;28;20495;-67
2022/01/22 09:46:49;;;;;;;11.17;8.00;;;4.80;1.00;;;;;;5090922;28;20531;-67
2022/01/22 09:49:15;;;;;;;12.70;7.80;;;4.80;1.00;;;;;;5090547;28;20546;-67
2022/01/22 09:51:44;;;;;;;10.07;6.53;;;4.80;1.00;;;;;;5090628;28;20539;-66
2022/01/22 09:54:13;;;;;;;8.53;7.03;;;4.80;1.00;;;;;;5090480;28;20544;-67
2022/01/22 09:56:44;;;;;;;15.17;8.30;;;4.90;1.00;;;;;;5090844;28;20507;-67
2022/01/22 09:59:11;;;;;;;8.37;6.90;;;4.90;1.00;;;;;;5090540;28;20488;-67
2022/01/22 10:01:38;;;;;;;7.93;6.07;;;4.90;1.00;;;;;;5090500;28;20480;-67
2022/01/22 10:04:06;;;;;;;12.17;8.30;;;4.90;1.00;;;;;;5089846;28;20445;-68
2022/01/22 10:06:45;;;;;;;14.20;8.90;;;4.90;1.00;;;;;;5090459;28;20453;-70
2022/01/22 10:09:25;;;;;;;10.40;7.50;;;4.80;1.00;;;;;;5090396;28;20959;-66
2022/01/22 10:12:07;;;;;;;14.13;7.50;;;4.90;1.00;;;;;;5089014;28;20455;-66
2022/01/22 10:14:34;;;;;;;9.63;6.60;;;5.00;1.00;;;;;;5077063;28;20450;-67
2022/01/22 10:17:01;;;;;;;8.57;6.63;;;5.00;1.00;;;;;;5071276;28;20535;-68
2022/01/22 10:19:28;;;;;;;10.50;6.30;;;5.00;1.00;;;;;;5076510;28;20480;-67
2022/01/22 10:21:57;;;;;;;11.73;7.10;;;5.00;1.00;;;;;;5084815;28;20984;-67
2022/01/22 10:24:33;;;;;;;8.90;5.60;;;5.00;1.00;;;;;;5087768;28;20455;-67
2022/01/22 10:27:26;;;;;;;9.73;7.40;;;5.00;1.00;;;;;;5087794;28;20462;-67
2022/01/22 10:29:56;;;;;;;7.77;6.33;;;5.20;1.00;;;;;;5087962;28;20436;-67
2022/01/22 10:32:32;;;;;;;9.70;6.30;;;5.20;1.00;;;;;;5069582;28;20542;-68
2022/01/22 10:35:08;;;;;;;9.37;6.47;;;5.20;1.00;;;;;;5085020;28;20516;-68
2022/01/22 10:37:35;;;;;;;7.50;6.00;;;5.10;1.00;;;;;;5087782;28;20448;-68
2022/01/22 10:40:23;;;;;;;10.57;6.40;;;5.00;1.00;;;;;;5087123;28;21042;-67
2022/01/22 10:42:51;;;;;;;7.13;5.70;;;4.90;1.00;;;;;;5087220;28;20464;-67
2022/01/22 10:45:26;;;;;;;9.30;6.27;;;4.80;1.00;;;;;;5091595;28;20453;-68
2022/01/22 10:48:14;;;;;;;13.57;8.60;;;4.70;1.00;;;;;;5090806;28;20816;-68
2022/01/22 10:50:41;;;;;;;8.20;5.63;;;4.80;1.00;;;;;;5091499;28;20543;-67
2022/01/22 10:53:08;;;;;;;9.17;6.57;;;4.80;1.00;;;;;;5090562;28;20546;-66
2022/01/22 10:56:03;;;;;;;10.20;6.87;;;4.90;1.00;;;;;;5089246;28;20543;-66
2022/01/22 10:58:31;;;;;;;10.93;6.10;;;5.00;1.00;;;;;;5071074;28;20568;-68
2022/01/22 11:01:00;;;;;;;8.67;6.00;;;5.20;1.00;;;;;;5070352;28;20564;-68
2022/01/22 11:03:28;;;;;;;10.30;5.83;;;5.00;1.00;;;;;;5071807;28;20445;-67
2022/01/22 11:05:56;;;;;;;12.33;6.37;;;5.10;1.00;;;;;;5070229;28;20541;-68
2022/01/22 11:08:23;;;;;;;8.70;6.00;;;5.10;1.00;;;;;;5057618;28;20553;-67
2022/01/22 11:10:52;;;;;;;14.90;6.57;;;5.10;1.00;;;;;;5069998;28;20461;-67
2022/01/22 11:13:19;;;;;;;8.30;5.47;;;5.10;1.00;;;;;;5071123;28;20495;-67
2022/01/22 11:15:49;;;;;;;7.33;5.60;;;5.10;1.00;;;;;;5069959;28;20460;-66
2022/01/22 11:18:17;;;;;;;10.60;6.70;;;5.00;1.00;;;;;;5070645;28;20489;-68
2022/01/22 11:20:45;;;;;;;10.50;7.03;;;5.00;1.00;;;;;;5070919;28;20457;-67
2022/01/22 11:23:14;;;;;;;11.03;6.67;;;5.00;1.00;;;;;;5070524;28;20461;-67
2022/01/22 11:25:42;;;;;;;11.20;6.67;;;5.00;1.00;;;;;;5070367;28;20476;-66
2022/01/22 11:28:11;;;;;;;20.97;13.00;;;5.10;1.00;;;;;;5069949;28;20933;-66
2022/01/22 11:30:38;;;;;;;7.23;6.00;;;5.20;1.00;;;;;;5070847;28;21015;-65
2022/01/22 11:33:10;;;;;;;8.10;5.93;;;5.20;1.00;;;;;;5069787;28;20449;-65
2022/01/22 11:35:45;;;;;;;9.07;5.33;;;5.30;1.00;;;;;;5070282;28;20448;-65
2022/01/22 11:38:16;;;;;;;7.60;5.77;;;5.40;1.00;;;;;;5069744;28;20477;-66
2022/01/22 11:41:02;;;;;;;9.40;5.90;;;5.30;1.00;;;;;;5070527;28;20561;-65
2022/01/22 11:43:58;;;;;;;9.23;6.43;;;5.40;1.00;;;;;;5070793;28;20878;-66
2022/01/22 11:46:28;;;;;;;11.57;6.37;;;5.40;1.00;;;;;;5070745;28;20446;-66
2022/01/22 11:49:18;;;;;;;10.40;6.17;;;5.50;1.00;;;;;;5069676;28;20449;-65
2022/01/22 11:51:46;;;;;;;9.13;6.03;;;5.50;1.00;;;;;;5069648;28;20453;-65
2022/01/22 11:54:16;;;;;;;8.60;6.17;;;5.50;1.00;;;;;;5070416;28;20453;-66
2022/01/22 11:56:48;;;;;;;7.33;5.70;;;5.50;1.00;;;;;;5075454;28;21051;-66
2022/01/22 11:59:34;;;;;;;8.50;5.43;;;5.70;1.00;;;;;;5090359;28;20599;-66
2022/01/22 12:02:04;;;;;;;9.23;5.23;;;5.60;1.00;;;;;;5089135;28;21011;-66
2022/01/22 12:05:01;;;;;;;8.87;6.07;;;5.60;1.00;;;;;;5089783;28;20535;-65
2022/01/22 12:07:29;;;;;;;8.93;5.80;;;5.70;1.00;;;;;;5082258;28;20514;-65
2022/01/22 12:10:36;;;;;;;10.90;6.57;;;5.80;1.00;;;;;;5081581;28;21005;-65
2022/01/22 12:16:13;;;;;;;10.00;5.87;;;5.70;1.00;;;;;;5069340;28;20424;-65
2022/01/22 12:18:46;;;;;;;7.87;4.97;;;5.70;1.00;;;;;;5086944;28;20573;-65
2022/01/22 12:21:35;;;;;;;6.30;4.60;;;5.70;1.00;;;;;;5090280;28;20778;-65
2022/01/22 12:24:06;;;;;;;7.27;4.43;;;5.90;1.00;;;;;;5081649;28;21011;-66
2022/01/22 12:26:50;;;;;;;8.83;5.57;;;6.00;99.90;;;;;;5090226;28;20470;-66
2022/01/22 12:29:35;;;;;;;7.37;5.00;;;6.00;99.90;;;;;;5090349;28;20444;-66
2022/01/22 12:32:13;;;;;;;6.30;3.93;;;5.90;99.90;;;;;;5077217;28;20527;-66
2022/01/22 12:35:00;;;;;;;5.40;4.20;;;6.00;99.90;;;;;;5089760;28;20462;-66
2022/01/22 12:37:29;;;;;;;5.00;4.43;;;6.10;99.90;;;;;;5089475;28;20513;-66
2022/01/22 12:39:57;;;;;;;5.80;4.33;;;6.20;99.90;;;;;;5088912;28;21013;-66
2022/01/22 12:42:51;;;;;;;6.13;4.40;;;6.20;99.90;;;;;;5089789;28;20441;-66
2022/01/22 12:45:19;;;;;;;6.63;3.67;;;6.10;99.90;;;;;;5079283;28;20455;-66
2022/01/22 12:47:49;;;;;;;8.37;3.83;;;6.00;99.90;;;;;;5088958;28;20472;-65
2022/01/22 12:50:16;;;;;;;6.73;4.30;;;6.00;99.90;;;;;;5089052;28;20955;-66
2022/01/22 12:52:47;;;;;;;5.10;3.50;;;6.00;99.90;;;;;;5089150;28;20448;-66
2022/01/22 12:55:18;;;;;;;7.07;3.57;;;6.10;79.90;;;;;;5087031;28;20455;-66
2022/01/22 12:57:45;;;;;;;4.73;3.33;;;6.00;99.90;;;;;;5088824;28;20480;-66
2022/01/22 13:00:16;;;;;;;5.70;3.77;;;6.00;89.30;;;;;;5088926;28;20520;-65
2022/01/22 13:02:45;;;;;;;4.23;3.27;;;5.90;99.90;;;;;;5089307;28;20445;-66
2022/01/22 13:05:15;;;;;;;3.83;3.30;;;5.70;64.10;;;;;;5088471;28;20456;-66
2022/01/22 13:07:45;;;;;;;4.10;3.33;;;5.90;99.90;;;;;;5076430;28;20543;-66
2022/01/22 13:10:12;;;;;;;6.17;4.10;;;5.90;83.50;;;;;;5089446;28;20452;-66
2022/01/22 13:12:44;;;;;;;7.50;3.90;;;5.80;1.00;;;;;;5089485;28;20587;-66
2022/01/22 13:15:11;;;;;;;4.70;2.90;;;5.70;99.90;;;;;;5089225;28;20443;-66
2022/01/22 13:17:39;;;;;;;4.30;3.20;;;5.70;99.90;;;;;;5089336;28;20542;-66
2022/01/22 13:20:08;;;;;;;5.33;3.20;;;5.80;99.90;;;;;;5088908;28;20480;-67
2022/01/22 13:22:37;;;;;;;5.77;3.73;;;5.90;99.90;;;;;;5089390;28;20503;-66
2022/01/22 13:25:07;;;;;;;6.50;4.40;;;5.90;99.90;;;;;;5087815;28;20440;-67
2022/01/22 13:27:35;;;;;;;7.07;4.50;;;5.90;99.90;;;;;;5088694;28;20495;-66
2022/01/22 13:30:03;;;;;;;5.50;4.10;;;6.10;99.90;;;;;;5088240;28;20572;-66
2022/01/22 13:32:48;;;;;;;4.73;3.90;;;6.00;99.90;;;;;;5088842;28;20457;-66
2022/01/22 13:35:43;;;;;;;6.40;4.57;;;6.20;99.90;;;;;;5088873;28;20444;-66
2022/01/22 13:38:34;;;;;;;6.90;5.10;;;6.30;75.30;;;;;;5087946;28;20452;-67
2022/01/22 13:49:26;;;;;;;11.97;5.53;;;6.20;2.10;;;;;;5088127;28;20966;-66
2022/01/22 13:51:54;;;;;;;5.93;4.63;;;6.10;58.90;;;;;;5087576;28;20999;-66
2022/01/22 13:54:28;;;;;;;7.90;5.57;;;6.00;99.90;;;;;;5088372;28;20564;-67
2022/01/22 13:56:59;;;;;;;9.10;4.50;;;6.00;93.90;;;;;;5086140;28;20495;-67
2022/01/22 13:59:28;;;;;;;6.00;4.40;;;6.00;99.90;;;;;;5088897;28;20491;-67
2022/01/22 14:02:12;;;;;;;8.30;4.70;;;6.00;99.90;;;;;;5088241;28;20539;-66
2022/01/22 14:04:41;;;;;;;7.30;5.40;;;6.10;99.90;;;;;;5088639;28;20440;-66
2022/01/22 14:07:25;;;;;;;6.93;5.13;;;6.20;99.90;;;;;;5084331;28;20456;-66
2022/01/22 14:09:56;;;;;;;6.33;4.60;;;6.10;99.90;;;;;;5080078;28;20864;-67
2022/01/22 14:12:25;;;;;;;5.70;4.73;;;6.10;96.30;;;;;;5088051;28;20436;-67
2022/01/22 14:15:07;;;;;;;8.23;5.50;;;6.10;52.80;;;;;;5087450;28;20444;-66
2022/01/22 14:17:48;;;;;;;6.70;5.27;;;6.10;2.30;;;;;;5077181;28;20455;-67
2022/01/22 14:20:15;;;;;;;7.03;5.13;;;6.20;99.90;;;;;;5092436;28;20948;-67
2022/01/22 14:23:01;;;;;;;8.40;7.07;;;6.20;1.00;;;;;;5092239;28;20458;-66
2022/01/22 14:25:30;;;;;;;7.63;4.27;;;6.10;1.00;;;;;;5091936;28;20453;-66
2022/01/22 14:27:59;;;;;;;6.97;4.80;;;6.00;99.90;;;;;;5091172;28;20542;-68
2022/01/22 14:30:48;;;;;;;5.50;4.63;;;6.10;2.90;;;;;;5091904;28;20938;-66
2022/01/22 14:33:17;;;;;;;7.50;5.20;;;6.10;46.90;;;;;;5084761;28;20569;-67
2022/01/22 14:35:46;;;;;;;7.30;4.40;;;6.10;99.90;;;;;;5090930;28;20986;-65
2022/01/22 14:38:42;;;;;;;6.53;5.27;;;6.10;30.00;;;;;;5091721;28;20531;-67
2022/01/22 14:46:52;;;;;;;8.13;4.57;;;6.10;75.60;;;;;;5091369;28;20425;-66
2022/01/22 14:49:23;;;;;;;6.50;5.00;;;6.30;1.00;;;;;;5091659;28;20456;-66
2022/01/22 14:51:50;;;;;;;7.27;6.10;;;6.20;1.00;;;;;;5090769;28;20951;-65
2022/01/22 14:54:18;;;;;;;7.60;6.10;;;6.10;1.00;;;;;;5091341;28;20450;-66
2022/01/22 14:56:46;;;;;;;10.10;6.33;;;6.00;99.90;;;;;;5089239;28;20487;-65
2022/01/22 14:59:13;;;;;;;7.77;5.17;;;6.20;82.80;;;;;;5091427;28;20570;-66
2022/01/22 15:01:40;;;;;;;9.53;5.53;;;6.10;90.20;;;;;;5091264;28;20871;-66
2022/01/22 15:04:07;;;;;;;9.00;5.80;;;6.20;96.70;;;;;;5089855;28;20448;-66
2022/01/22 15:06:34;;;;;;;6.67;5.23;;;6.00;1.00;;;;;;5091646;28;20543;-67
2022/01/22 15:09:01;;;;;;;10.33;6.37;;;6.00;56.70;;;;;;5090032;28;20959;-66
2022/01/22 15:11:28;;;;;;;6.60;5.90;;;6.00;1.00;;;;;;5091161;28;20513;-66
2022/01/22 15:13:56;;;;;;;7.00;5.70;;;6.00;1.00;;;;;;5089520;28;20453;-66
2022/01/22 15:16:30;;;;;;;8.50;6.80;;;6.00;97.10;;;;;;5091368;28;20444;-67
2022/01/22 15:19:02;;;;;;;7.40;6.00;;;6.00;26.90;;;;;;5090694;28;20452;-66
2022/01/22 15:21:29;;;;;;;8.73;6.63;;;5.90;1.00;;;;;;5091568;28;20456;-66
2022/01/22 15:23:56;;;;;;;9.53;6.20;;;5.80;99.90;;;;;;5090162;28;20536;-66
2022/01/22 15:26:23;;;;;;;11.77;6.80;;;5.80;99.90;;;;;;5091088;28;20559;-66
2022/01/22 15:28:52;;;;;;;9.10;6.13;;;5.70;99.90;;;;;;5090113;28;20480;-66
2022/01/22 15:31:30;;;;;;;9.53;7.37;;;5.80;99.90;;;;;;5091285;28;20798;-66
2022/01/22 15:34:09;;;;;;;10.93;7.20;;;5.80;99.90;;;;;;5090067;28;20510;-66
2022/01/22 15:36:37;;;;;;;9.37;7.67;;;5.90;99.90;;;;;;5090540;28;20440;-66
2022/01/22 15:39:06;;;;;;;9.00;6.77;;;6.00;59.30;;;;;;5089722;28;20449;-67